Time;durP1;ratioP1;P1;durP2;ratioP2;P2;SDS_P1;SDS_P2;PMS_P1;PMS_P2;Temp;Humidity;BMP_temperature;BMP_pressure;BME280_temperature;BME280_humidity;BME280_pressure;Samples;Min_cycle;Max_cycle;Signal;HPM_P1;HPM_P2
2022/03/05 00:00:20;;;;;;;4.15;3.25;;;20.60;64.40;;;;;;7841542;28;20250;-45
2022/03/05 00:04:05;;;;;;;5.55;3.63;;;20.60;64.30;;;;;;7838667;28;20209;-47
2022/03/05 00:07:51;;;;;;;4.25;3.33;;;20.60;64.30;;;;;;7838420;28;20213;-47
2022/03/05 00:11:38;;;;;;;5.40;3.67;;;20.50;64.20;;;;;;7838218;28;20285;-46
2022/03/05 00:15:24;;;;;;;4.28;3.65;;;20.50;64.30;;;;;;7838466;28;20178;-47
2022/03/05 00:19:10;;;;;;;4.03;3.50;;;20.50;64.20;;;;;;7838025;28;20205;-45
2022/03/05 00:22:55;;;;;;;4.72;3.70;;;20.50;64.20;;;;;;7838146;28;20194;-46
2022/03/05 00:26:41;;;;;;;5.20;3.92;;;20.40;64.20;;;;;;7838078;28;20271;-46
2022/03/05 00:30:26;;;;;;;4.70;3.88;;;20.40;64.10;;;;;;7837760;28;20189;-47
2022/03/05 00:34:12;;;;;;;5.18;3.35;;;20.40;64.30;;;;;;7837866;28;20586;-46
2022/03/05 00:37:58;;;;;;;4.53;3.53;;;20.30;64.20;;;;;;7837992;28;20265;-46
2022/03/05 00:41:43;;;;;;;3.92;3.53;;;20.30;64.10;;;;;;7837843;28;20197;-45
2022/03/05 00:45:29;;;;;;;5.60;3.38;;;20.30;64.10;;;;;;7837855;28;20182;-46
2022/03/05 00:49:14;;;;;;;3.90;3.50;;;20.20;64.10;;;;;;7837572;28;20209;-47
2022/03/05 00:53:00;;;;;;;4.93;3.88;;;20.30;64.10;;;;;;7837714;28;20186;-46
2022/03/05 00:56:45;;;;;;;5.05;3.05;;;20.20;64.10;;;;;;7837679;28;20655;-46
2022/03/05 01:00:31;;;;;;;3.83;3.33;;;20.20;64.10;;;;;;7837412;28;20230;-46
2022/03/05 01:04:16;;;;;;;4.75;3.67;;;20.20;64.20;;;;;;7837595;28;20204;-46
2022/03/05 01:08:02;;;;;;;3.95;3.08;;;20.10;64.10;;;;;;7842444;28;20220;-45
2022/03/05 01:11:47;;;;;;;5.18;3.22;;;20.10;64.20;;;;;;7843311;28;20201;-47
2022/03/05 01:15:33;;;;;;;5.55;3.47;;;20.10;64.20;;;;;;7843290;28;20174;-47
2022/03/05 01:19:18;;;;;;;4.57;3.33;;;20.10;64.10;;;;;;7843543;28;20181;-47
2022/03/05 01:23:04;;;;;;;4.65;3.15;;;20.10;64.20;;;;;;7843739;28;20193;-47
2022/03/05 01:26:49;;;;;;;3.75;3.20;;;20.00;64.10;;;;;;7843607;28;20205;-48
2022/03/05 01:30:35;;;;;;;4.38;3.50;;;20.00;64.20;;;;;;7843010;28;20323;-46
2022/03/05 01:34:21;;;;;;;4.25;3.40;;;20.00;64.20;;;;;;7843150;28;20183;-48
2022/03/05 01:38:06;;;;;;;3.75;3.10;;;20.00;64.20;;;;;;7843059;28;20174;-49
2022/03/05 01:41:55;;;;;;;3.05;2.75;;;19.90;64.20;;;;;;7842412;28;20210;-45
2022/03/05 01:45:40;;;;;;;4.90;2.95;;;19.90;64.20;;;;;;7842803;28;20182;-47
2022/03/05 01:49:26;;;;;;;4.22;3.30;;;19.90;64.20;;;;;;7842249;28;20170;-49
2022/03/05 01:53:11;;;;;;;4.72;3.50;;;19.80;64.10;;;;;;7842306;28;20233;-48
2022/03/05 01:57:00;;;;;;;5.00;3.08;;;19.80;64.10;;;;;;7842293;28;20637;-48
2022/03/05 02:00:45;;;;;;;4.47;3.20;;;19.80;64.10;;;;;;7842030;28;20178;-47
2022/03/05 02:04:31;;;;;;;4.47;2.97;;;19.80;64.00;;;;;;7845770;28;20214;-47
2022/03/05 02:08:17;;;;;;;4.55;3.38;;;19.80;63.90;;;;;;7841811;28;20304;-45
2022/03/05 02:12:03;;;;;;;4.30;3.40;;;19.80;63.90;;;;;;7841462;28;20259;-46
2022/03/05 02:15:56;;;;;;;4.05;3.25;;;19.80;63.70;;;;;;7841701;28;20182;-46
2022/03/05 02:19:41;;;;;;;4.15;3.20;;;19.80;63.80;;;;;;7839975;28;20178;-46
2022/03/05 02:23:27;;;;;;;4.03;3.60;;;19.80;63.40;;;;;;7841356;28;20206;-47
2022/03/05 02:27:12;;;;;;;3.75;3.28;;;19.80;63.20;;;;;;7841266;28;20206;-46
2022/03/05 02:30:58;;;;;;;5.18;3.10;;;19.80;62.70;;;;;;7840888;28;20532;-46
2022/03/05 02:34:44;;;;;;;6.50;3.42;;;19.80;62.70;;;;;;7841132;28;20663;-46
2022/03/05 02:38:30;;;;;;;4.60;3.38;;;19.70;62.80;;;;;;7841021;28;20563;-48
2022/03/05 02:42:17;;;;;;;4.88;3.42;;;19.70;62.70;;;;;;7840615;28;20198;-46
2022/03/05 02:46:03;;;;;;;5.40;3.40;;;19.70;62.40;;;;;;7841052;28;20296;-47
2022/03/05 02:49:48;;;;;;;4.22;3.33;;;19.70;62.60;;;;;;7840412;28;20171;-45
2022/03/05 02:53:34;;;;;;;5.30;3.60;;;19.80;62.60;;;;;;7840543;28;20190;-46
2022/03/05 02:57:20;;;;;;;4.55;3.17;;;19.70;62.40;;;;;;7840552;28;20177;-47
2022/03/05 03:01:06;;;;;;;3.78;3.35;;;19.60;62.00;;;;;;7839980;28;20198;-46
2022/03/05 03:04:51;;;;;;;6.05;3.10;;;19.60;62.50;;;;;;7840579;28;20174;-46
2022/03/05 03:08:37;;;;;;;4.70;3.78;;;19.60;62.40;;;;;;7840266;28;20704;-46
2022/03/05 03:12:22;;;;;;;4.80;3.78;;;19.60;62.40;;;;;;7839778;28;20255;-48
2022/03/05 03:16:09;;;;;;;4.40;3.40;;;19.60;62.00;;;;;;7840097;28;20184;-47
2022/03/05 03:19:54;;;;;;;5.93;3.53;;;19.60;62.20;;;;;;7840362;28;20185;-46
2022/03/05 03:23:40;;;;;;;6.38;3.50;;;19.60;61.50;;;;;;7839967;28;20198;-47
2022/03/05 03:27:25;;;;;;;4.28;3.10;;;19.60;61.80;;;;;;7839807;28;20259;-46
2022/03/05 03:31:11;;;;;;;4.72;3.53;;;19.50;61.80;;;;;;7838856;28;20202;-46
2022/03/05 03:34:56;;;;;;;4.22;2.88;;;19.60;61.60;;;;;;7839361;28;20238;-47
2022/03/05 03:38:42;;;;;;;4.25;3.33;;;19.50;61.90;;;;;;7839296;28;20209;-46
2022/03/05 03:42:28;;;;;;;4.65;3.25;;;19.50;61.40;;;;;;7838901;28;20228;-47
2022/03/05 03:46:13;;;;;;;4.38;3.08;;;19.50;62.10;;;;;;7837665;28;20683;-46
2022/03/05 03:49:59;;;;;;;4.35;2.85;;;19.50;62.30;;;;;;7838714;28;20546;-48
2022/03/05 03:53:44;;;;;;;3.65;2.95;;;19.50;62.20;;;;;;7838802;28;20194;-46
2022/03/05 03:57:30;;;;;;;3.70;3.00;;;19.40;62.10;;;;;;7838710;28;20181;-45
2022/03/05 04:01:15;;;;;;;3.13;2.78;;;19.40;62.50;;;;;;7838156;28;20249;-47
2022/03/05 04:05:01;;;;;;;3.63;2.80;;;19.40;62.30;;;;;;7838851;28;20193;-45
2022/03/05 04:08:46;;;;;;;3.72;3.03;;;19.40;62.20;;;;;;7838831;28;20221;-46
2022/03/05 04:12:32;;;;;;;4.35;3.03;;;19.40;62.30;;;;;;7838095;28;20251;-46
2022/03/05 04:16:17;;;;;;;4.07;2.78;;;19.30;62.10;;;;;;7838257;28;20717;-46
2022/03/05 04:20:05;;;;;;;5.05;2.88;;;19.30;62.10;;;;;;7838175;28;20725;-46
2022/03/05 04:23:50;;;;;;;3.65;2.55;;;19.30;62.40;;;;;;7838326;28;20217;-46
2022/03/05 04:27:36;;;;;;;5.03;3.15;;;19.30;62.40;;;;;;7838037;28;20201;-46
2022/03/05 04:31:21;;;;;;;3.72;2.60;;;19.30;62.90;;;;;;7837710;28;20248;-46
2022/03/05 04:35:08;;;;;;;3.78;3.00;;;19.30;61.90;;;;;;7837970;28;20209;-48
2022/03/05 04:38:53;;;;;;;3.85;2.55;;;19.30;61.50;;;;;;7838074;28;20231;-47
2022/03/05 04:42:39;;;;;;;5.13;2.90;;;19.30;61.90;;;;;;7842278;28;20332;-46
2022/03/05 04:46:24;;;;;;;4.13;3.40;;;19.30;61.80;;;;;;7844199;28;20201;-46
2022/03/05 04:50:10;;;;;;;4.30;3.10;;;19.30;61.50;;;;;;7843945;28;20647;-48
2022/03/05 04:53:55;;;;;;;4.05;2.53;;;19.20;61.60;;;;;;7843985;28;20225;-45
2022/03/05 04:57:41;;;;;;;4.55;3.33;;;19.20;61.20;;;;;;7844220;28;20178;-46
2022/03/05 05:01:26;;;;;;;5.13;3.20;;;19.20;61.20;;;;;;7843592;28;20214;-47
2022/03/05 05:05:12;;;;;;;3.92;3.15;;;19.20;61.00;;;;;;7844234;28;20178;-47
2022/03/05 05:08:57;;;;;;;3.53;2.90;;;19.20;61.20;;;;;;7844102;28;20209;-46
2022/03/05 05:12:43;;;;;;;4.50;3.25;;;19.10;61.00;;;;;;7846336;28;20205;-47
2022/03/05 05:16:28;;;;;;;4.30;3.55;;;19.10;61.10;;;;;;7863958;28;20185;-46
2022/03/05 05:20:14;;;;;;;5.95;3.25;;;19.20;61.20;;;;;;7847076;28;20227;-46
2022/03/05 05:23:59;;;;;;;4.00;2.92;;;19.20;61.20;;;;;;7853374;28;20259;-46
2022/03/05 05:27:45;;;;;;;4.80;3.47;;;19.20;61.20;;;;;;7843263;28;20232;-47
2022/03/05 05:31:30;;;;;;;5.75;3.55;;;19.10;61.10;;;;;;7842574;28;20390;-46
2022/03/05 05:35:16;;;;;;;4.07;3.20;;;19.10;61.10;;;;;;7842890;28;20184;-48
2022/03/05 05:39:01;;;;;;;4.43;3.17;;;19.20;61.20;;;;;;7843035;28;20174;-46
2022/03/05 05:42:47;;;;;;;3.83;3.08;;;19.20;61.30;;;;;;7842366;28;20202;-46
2022/03/05 05:46:33;;;;;;;5.40;3.38;;;19.20;61.20;;;;;;7850152;28;20545;-48
2022/03/05 05:50:18;;;;;;;4.95;3.63;;;19.20;61.20;;;;;;7855158;28;20629;-46
2022/03/05 05:54:04;;;;;;;4.50;3.70;;;19.20;61.20;;;;;;7843121;28;20615;-47
2022/03/05 05:57:50;;;;;;;4.47;3.55;;;19.20;61.20;;;;;;7842439;28;20185;-48
2022/03/05 06:01:35;;;;;;;5.13;3.70;;;19.30;61.20;;;;;;7841786;28;20245;-47
2022/03/05 06:05:21;;;;;;;7.95;3.55;;;19.30;61.10;;;;;;7842064;28;20193;-47
2022/03/05 06:09:06;;;;;;;5.55;4.07;;;19.30;61.10;;;;;;7860196;28;20228;-46
2022/03/05 06:12:52;;;;;;;5.68;3.92;;;19.40;61.00;;;;;;7873086;28;20283;-46
2022/03/05 06:16:37;;;;;;;6.70;3.83;;;19.40;60.90;;;;;;7872784;28;20257;-46
2022/03/05 06:20:23;;;;;;;4.43;3.45;;;19.40;60.80;;;;;;7872326;28;20196;-46
2022/03/05 06:24:09;;;;;;;4.88;3.67;;;19.50;60.90;;;;;;7872471;28;20193;-46
2022/03/05 06:27:55;;;;;;;4.25;3.33;;;19.50;60.80;;;;;;7872465;28;20216;-48
2022/03/05 06:31:40;;;;;;;7.22;4.15;;;19.50;60.80;;;;;;7872115;28;20186;-45
2022/03/05 06:35:26;;;;;;;4.97;4.47;;;19.50;60.50;;;;;;7872359;28;20174;-46
2022/03/05 06:39:11;;;;;;;8.52;4.65;;;19.50;60.00;;;;;;7871916;28;20234;-46
2022/03/05 06:42:56;;;;;;;7.78;4.85;;;19.50;60.00;;;;;;7871964;28;20556;-46
2022/03/05 06:46:42;;;;;;;6.18;4.55;;;19.60;59.90;;;;;;7871817;28;20221;-46
2022/03/05 06:50:27;;;;;;;8.23;4.95;;;19.60;59.80;;;;;;7871554;28;20169;-46
2022/03/05 06:54:13;;;;;;;6.45;4.85;;;19.60;59.80;;;;;;7871668;28;20243;-48
2022/03/05 06:57:59;;;;;;;6.95;4.55;;;19.60;59.70;;;;;;7871518;28;20651;-46
2022/03/05 07:01:44;;;;;;;5.85;4.72;;;19.60;59.60;;;;;;7865421;28;20583;-48
2022/03/05 07:05:30;;;;;;;5.65;4.50;;;19.60;59.60;;;;;;7839514;28;20186;-46
2022/03/05 07:09:15;;;;;;;9.00;5.03;;;19.60;59.50;;;;;;7839841;28;20206;-46
2022/03/05 07:13:01;;;;;;;6.18;4.85;;;19.60;59.50;;;;;;7839941;28;20197;-46
2022/03/05 07:16:46;;;;;;;7.25;4.30;;;19.70;59.50;;;;;;7839929;28;20178;-47
2022/03/05 07:20:31;;;;;;;8.23;4.72;;;19.70;59.40;;;;;;7839610;28;20227;-46
2022/03/05 07:24:17;;;;;;;5.45;4.32;;;19.70;59.30;;;;;;7839685;28;20693;-47
2022/03/05 07:28:03;;;;;;;6.82;4.32;;;19.70;59.30;;;;;;7839534;28;20216;-47
2022/03/05 07:31:49;;;;;;;10.02;4.55;;;19.70;59.30;;;;;;7837750;28;20276;-46
2022/03/05 07:35:34;;;;;;;7.32;4.60;;;19.70;59.30;;;;;;7839354;28;20177;-46
2022/03/05 07:39:20;;;;;;;6.18;4.53;;;19.80;59.30;;;;;;7838950;28;20204;-46
2022/03/05 07:43:05;;;;;;;5.47;4.50;;;19.80;59.40;;;;;;7838950;28;20206;-47
2022/03/05 07:46:51;;;;;;;5.43;4.05;;;19.80;59.50;;;;;;7838955;28;20610;-46
2022/03/05 07:50:37;;;;;;;21.58;5.13;;;19.80;59.90;;;;;;7838534;28;20201;-46
2022/03/05 07:54:23;;;;;;;318.83;19.15;;;19.90;59.90;;;;;;7839022;28;20181;-46
2022/03/05 07:58:09;;;;;;;116.28;11.93;;;19.90;60.00;;;;;;7839225;28;20315;-54
2022/03/05 08:01:54;;;;;;;95.10;7.85;;;19.80;59.90;;;;;;7838388;28;20213;-49
2022/03/05 08:05:41;;;;;;;44.65;6.82;;;19.90;60.20;;;;;;7838754;28;20538;-45
2022/03/05 08:09:26;;;;;;;72.05;7.57;;;19.90;59.90;;;;;;7838925;28;20189;-47
2022/03/05 08:13:12;;;;;;;38.42;6.18;;;19.90;59.70;;;;;;7838769;28;20856;-45
2022/03/05 08:16:57;;;;;;;35.20;5.85;;;19.90;59.70;;;;;;7838491;28;20177;-47
2022/03/05 08:20:43;;;;;;;22.25;5.28;;;19.90;59.70;;;;;;7838085;28;20631;-45
2022/03/05 08:24:28;;;;;;;32.92;7.20;;;19.90;59.60;;;;;;7838341;28;20170;-45
2022/03/05 08:28:14;;;;;;;24.98;5.47;;;19.90;60.10;;;;;;7838121;28;20210;-46
2022/03/05 08:31:59;;;;;;;42.63;6.05;;;20.00;59.90;;;;;;7838126;28;20289;-46
2022/03/05 08:35:45;;;;;;;21.33;5.32;;;20.00;59.80;;;;;;7838069;28;20185;-47
2022/03/05 08:39:30;;;;;;;18.65;5.65;;;20.00;59.80;;;;;;7837756;28;20173;-46
2022/03/05 08:43:16;;;;;;;23.63;5.28;;;20.00;60.50;;;;;;7837788;28;20248;-47
2022/03/05 08:47:02;;;;;;;20.08;4.95;;;20.00;59.60;;;;;;7837806;28;20237;-46
2022/03/05 08:50:47;;;;;;;22.23;5.57;;;20.00;59.60;;;;;;7837455;28;20178;-48
2022/03/05 08:54:33;;;;;;;23.55;5.43;;;20.00;59.80;;;;;;7837701;28;20260;-44
2022/03/05 08:58:20;;;;;;;16.77;4.95;;;20.00;59.50;;;;;;7837856;28;20677;-46
2022/03/05 09:02:06;;;;;;;13.10;4.75;;;20.00;60.30;;;;;;7837424;28;20217;-45
2022/03/05 09:05:52;;;;;;;15.32;4.90;;;20.00;59.50;;;;;;7838002;28;20189;-47
2022/03/05 09:09:37;;;;;;;9.18;4.50;;;20.00;59.50;;;;;;7837806;28;20205;-46
2022/03/05 09:13:23;;;;;;;15.18;5.88;;;20.00;59.50;;;;;;7837676;28;20674;-45
2022/03/05 09:17:08;;;;;;;11.07;4.30;;;20.00;59.30;;;;;;7838007;28;20640;-48
2022/03/05 09:20:54;;;;;;;14.13;4.57;;;20.00;59.30;;;;;;7837129;28;20202;-45
2022/03/05 09:24:40;;;;;;;9.07;4.55;;;20.00;59.90;;;;;;7838243;28;20197;-48
2022/03/05 09:28:25;;;;;;;8.98;4.25;;;20.00;59.20;;;;;;7869233;28;20209;-46
2022/03/05 09:32:11;;;;;;;19.55;4.68;;;20.00;59.40;;;;;;7873144;28;20293;-46
2022/03/05 09:35:56;;;;;;;10.93;4.45;;;20.00;59.00;;;;;;7874017;28;20173;-46
2022/03/05 09:39:42;;;;;;;14.23;4.82;;;20.00;58.70;;;;;;7873562;28;20314;-46
2022/03/05 09:43:27;;;;;;;9.15;4.10;;;20.00;58.90;;;;;;7873661;28;20239;-47
2022/03/05 09:47:14;;;;;;;9.95;4.32;;;20.00;59.00;;;;;;7873769;28;20288;-49
2022/03/05 09:51:00;;;;;;;13.85;5.03;;;20.00;59.00;;;;;;7873070;28;20213;-45
2022/03/05 09:54:48;;;;;;;10.30;4.20;;;20.00;59.00;;;;;;7873460;28;20169;-46
2022/03/05 09:58:33;;;;;;;12.48;3.95;;;20.00;59.10;;;;;;7873434;28;20181;-47
2022/03/05 10:02:19;;;;;;;14.30;3.67;;;19.90;59.10;;;;;;7872846;28;20732;-48
2022/03/05 10:06:27;;;;;;;9.45;4.13;;;20.00;59.30;;;;;;7873013;28;20196;-46
2022/03/05 10:10:12;;;;;;;6.60;3.80;;;20.00;59.30;;;;;;7872809;28;20184;-46
2022/03/05 10:13:59;;;;;;;7.13;3.90;;;19.90;59.30;;;;;;7872872;28;20276;-46
2022/03/05 10:17:48;;;;;;;8.73;3.75;;;20.00;59.30;;;;;;7872787;28;20174;-46
2022/03/05 10:21:34;;;;;;;7.60;3.83;;;19.90;59.20;;;;;;7872509;28;20205;-45
2022/03/05 10:25:31;;;;;;;8.38;3.80;;;19.90;59.20;;;;;;7873295;28;20260;-47
2022/03/05 10:29:18;;;;;;;8.10;3.50;;;19.90;59.90;;;;;;7868039;28;20197;-45
2022/03/05 10:33:05;;;;;;;6.65;3.85;;;20.00;59.00;;;;;;7872414;28;20693;-45
2022/03/05 10:37:02;;;;;;;6.32;3.83;;;19.90;59.10;;;;;;7872234;28;20256;-45
2022/03/05 10:40:55;;;;;;;6.13;3.63;;;19.90;59.20;;;;;;7870631;28;20192;-45
2022/03/05 10:44:41;;;;;;;8.63;3.90;;;19.90;59.10;;;;;;7872023;28;20208;-46
2022/03/05 10:48:27;;;;;;;8.10;3.92;;;19.90;59.10;;;;;;7871915;28;20205;-46
2022/03/05 10:52:13;;;;;;;8.07;3.60;;;19.90;59.20;;;;;;7871704;28;20220;-45
2022/03/05 10:55:58;;;;;;;5.68;3.60;;;19.90;59.10;;;;;;7872005;28;20169;-45
2022/03/05 10:59:49;;;;;;;9.35;3.80;;;19.90;59.20;;;;;;7871761;28;20184;-45
2022/03/05 11:03:35;;;;;;;8.55;4.07;;;19.90;59.10;;;;;;7868554;28;20212;-45
2022/03/05 11:07:23;;;;;;;7.00;4.07;;;19.90;59.10;;;;;;7871766;28;20292;-45
2022/03/05 11:11:08;;;;;;;8.30;3.80;;;19.90;59.20;;;;;;7871475;28;20197;-46
2022/03/05 11:14:54;;;;;;;8.27;4.30;;;19.90;59.10;;;;;;7871092;28;20178;-45
2022/03/05 11:18:40;;;;;;;5.90;3.78;;;19.90;59.10;;;;;;7871182;28;20177;-46
2022/03/05 11:22:27;;;;;;;10.45;4.25;;;19.90;59.10;;;;;;7870419;28;20197;-45
2022/03/05 11:26:14;;;;;;;6.03;3.75;;;19.90;59.10;;;;;;7870626;28;20697;-45
2022/03/05 11:30:05;;;;;;;6.72;3.78;;;19.90;59.10;;;;;;7870249;28;20538;-46
2022/03/05 11:33:51;;;;;;;7.15;3.58;;;19.90;59.10;;;;;;7870410;28;20195;-45
2022/03/05 11:37:37;;;;;;;6.32;3.80;;;19.90;59.10;;;;;;7870549;28;20185;-45
2022/03/05 11:41:27;;;;;;;5.72;4.03;;;19.90;59.10;;;;;;7870212;28;20259;-44
2022/03/05 11:45:32;;;;;;;6.75;4.20;;;19.90;59.10;;;;;;7870121;28;20568;-45
2022/03/05 11:49:18;;;;;;;8.07;4.18;;;19.90;59.10;;;;;;7869431;28;20205;-47
2022/03/05 11:53:04;;;;;;;7.40;4.10;;;19.90;59.10;;;;;;7869787;28;20211;-45
2022/03/05 11:57:04;;;;;;;7.97;4.30;;;19.90;59.20;;;;;;7870070;28;20181;-47
2022/03/05 12:00:52;;;;;;;6.00;4.28;;;19.90;59.20;;;;;;7838687;28;20186;-46
2022/03/05 12:04:46;;;;;;;7.00;3.75;;;19.90;59.10;;;;;;7851909;28;20189;-46
2022/03/05 12:08:32;;;;;;;6.22;4.18;;;19.90;59.40;;;;;;7869941;28;20557;-45
2022/03/05 12:12:20;;;;;;;10.00;4.40;;;19.90;59.40;;;;;;7860383;28;20202;-47
2022/03/05 12:16:23;;;;;;;9.77;5.03;;;19.80;59.30;;;;;;7853242;28;20201;-45
2022/03/05 12:20:12;;;;;;;16.67;6.97;;;19.80;59.50;;;;;;7846348;28;20178;-48
2022/03/05 12:24:05;;;;;;;21.65;8.18;;;19.90;59.60;;;;;;7840381;28;20200;-48
2022/03/05 12:27:52;;;;;;;21.52;7.47;;;19.80;59.40;;;;;;7841517;28;20208;-48
2022/03/05 12:31:44;;;;;;;18.65;6.78;;;19.90;59.60;;;;;;7848588;28;20564;-45
2022/03/05 12:35:31;;;;;;;19.60;6.38;;;19.80;59.50;;;;;;7857451;28;20750;-45
2022/03/05 12:39:22;;;;;;;14.18;5.70;;;19.90;59.40;;;;;;7856055;28;20174;-47
2022/03/05 12:43:08;;;;;;;14.35;5.25;;;19.90;59.40;;;;;;7841547;28;20297;-46
2022/03/05 12:46:53;;;;;;;13.65;5.57;;;19.80;59.60;;;;;;7838042;28;20206;-45
2022/03/05 12:50:51;;;;;;;11.15;4.97;;;19.90;59.50;;;;;;7837616;28;20709;-45
2022/03/05 12:54:36;;;;;;;11.90;4.90;;;19.90;59.50;;;;;;7838017;28;20523;-46
2022/03/05 12:58:33;;;;;;;12.57;5.93;;;19.90;59.40;;;;;;7837824;28;20178;-46
2022/03/05 13:02:18;;;;;;;12.20;5.00;;;19.80;59.30;;;;;;7839528;28;20217;-44
2022/03/05 13:06:06;;;;;;;9.90;4.43;;;19.80;59.30;;;;;;7850345;28;20185;-46
2022/03/05 13:10:09;;;;;;;10.32;4.97;;;19.80;59.60;;;;;;7844623;28;20162;-46
2022/03/05 13:13:56;;;;;;;7.40;4.13;;;19.80;59.60;;;;;;7844056;28;20202;-46
2022/03/05 13:17:46;;;;;;;11.88;5.00;;;19.90;59.60;;;;;;7852826;28;20600;-46
2022/03/05 13:21:39;;;;;;;16.58;4.97;;;19.90;60.00;;;;;;7872000;28;20205;-45
2022/03/05 13:25:27;;;;;;;19.20;4.65;;;19.90;60.10;;;;;;7873588;28;20261;-45
2022/03/05 13:29:14;;;;;;;17.17;4.60;;;19.90;60.00;;;;;;7847481;28;20702;-45
2022/03/05 13:33:00;;;;;;;14.93;4.90;;;19.90;60.10;;;;;;7864621;28;20565;-46
2022/03/05 13:36:45;;;;;;;16.30;5.45;;;19.90;60.20;;;;;;7871886;28;20207;-44
2022/03/05 13:40:30;;;;;;;23.92;6.88;;;19.90;60.70;;;;;;7873636;28;20184;-46
2022/03/05 13:44:26;;;;;;;26.00;7.18;;;19.90;60.30;;;;;;7873992;28;20198;-46
2022/03/05 13:48:11;;;;;;;18.85;6.32;;;19.90;60.10;;;;;;7873823;28;20204;-46
2022/03/05 13:51:59;;;;;;;17.45;5.25;;;19.90;59.80;;;;;;7873577;28;20227;-46
2022/03/05 13:55:44;;;;;;;12.40;5.43;;;19.90;59.70;;;;;;7873542;28;20166;-48
2022/03/05 13:59:44;;;;;;;17.38;5.80;;;19.80;59.60;;;;;;7873325;28;20239;-46
2022/03/05 14:03:30;;;;;;;18.42;5.40;;;20.00;59.80;;;;;;7871944;28;20223;-46
2022/03/05 14:07:15;;;;;;;13.98;5.53;;;19.80;59.90;;;;;;7846197;28;20201;-46
2022/03/05 14:11:01;;;;;;;17.45;5.55;;;19.90;60.10;;;;;;7838916;28;20740;-47
2022/03/05 14:14:56;;;;;;;21.23;5.57;;;19.80;59.90;;;;;;7840675;28;20182;-46
2022/03/05 14:18:44;;;;;;;33.22;5.97;;;19.80;59.70;;;;;;7868673;28;20282;-53
2022/03/05 14:22:36;;;;;;;13.45;4.88;;;19.80;59.40;;;;;;7853277;28;20205;-49
2022/03/05 14:26:32;;;;;;;16.30;4.90;;;19.80;59.40;;;;;;7868819;28;20224;-48
2022/03/05 14:30:18;;;;;;;14.65;4.90;;;19.80;59.40;;;;;;7869000;28;20226;-48
2022/03/05 14:34:04;;;;;;;8.30;4.38;;;19.80;59.10;;;;;;7869059;28;20687;-48
2022/03/05 14:37:51;;;;;;;10.05;4.53;;;19.90;59.30;;;;;;7844082;28;20764;-48
2022/03/05 14:41:36;;;;;;;7.03;4.20;;;19.90;59.10;;;;;;7838227;28;20296;-48
2022/03/05 14:45:22;;;;;;;8.45;4.43;;;19.90;59.10;;;;;;7838971;28;20243;-48
2022/03/05 14:49:08;;;;;;;8.82;4.18;;;20.00;59.00;;;;;;7838617;28;20205;-48
2022/03/05 14:52:54;;;;;;;12.00;5.07;;;20.00;58.90;;;;;;7864485;28;20239;-48
2022/03/05 14:56:40;;;;;;;10.48;4.25;;;20.00;58.90;;;;;;7869429;28;20276;-48
2022/03/05 15:00:27;;;;;;;13.00;4.07;;;20.00;58.90;;;;;;7869151;28;20170;-48
2022/03/05 15:04:15;;;;;;;8.77;3.88;;;20.00;58.90;;;;;;7836499;28;996757;-47
2022/03/05 15:08:00;;;;;;;11.05;4.32;;;20.00;58.90;;;;;;7843449;28;20213;-48
2022/03/05 15:11:46;;;;;;;5.63;3.83;;;20.10;59.00;;;;;;7839302;28;20208;-48
2022/03/05 15:15:31;;;;;;;10.75;3.85;;;20.10;59.00;;;;;;7839473;28;20212;-48
2022/03/05 15:19:17;;;;;;;8.88;3.70;;;20.10;59.00;;;;;;7838749;28;20553;-48
2022/03/05 15:23:05;;;;;;;8.68;4.05;;;20.10;59.10;;;;;;7867241;28;20197;-48
2022/03/05 15:26:52;;;;;;;9.55;3.90;;;20.10;59.10;;;;;;7869579;28;20189;-48
2022/03/05 15:30:37;;;;;;;16.55;3.83;;;20.00;59.00;;;;;;7869945;28;20181;-48
2022/03/05 15:34:24;;;;;;;13.25;3.67;;;20.10;59.50;;;;;;7869669;28;20389;-47
2022/03/05 15:38:09;;;;;;;8.93;4.15;;;20.10;60.00;;;;;;7840491;28;20532;-48
2022/03/05 15:41:55;;;;;;;7.97;3.92;;;20.10;59.50;;;;;;7838278;28;20280;-48
2022/03/05 15:45:40;;;;;;;17.45;4.60;;;20.10;59.50;;;;;;7838962;28;20216;-48
2022/03/05 15:49:26;;;;;;;17.60;3.95;;;20.10;59.40;;;;;;7838549;28;20209;-48
2022/03/05 15:53:11;;;;;;;15.38;4.35;;;20.10;59.40;;;;;;7867663;28;20200;-48
2022/03/05 15:56:57;;;;;;;8.27;3.42;;;20.10;59.40;;;;;;7869442;28;20248;-48
2022/03/05 16:00:42;;;;;;;10.60;3.58;;;20.10;59.50;;;;;;7868358;28;20189;-48
2022/03/05 16:04:29;;;;;;;14.80;3.72;;;20.10;59.40;;;;;;7869308;28;20189;-48
2022/03/05 16:08:14;;;;;;;9.68;3.55;;;20.20;59.50;;;;;;7838753;28;20589;-48
2022/03/05 16:11:59;;;;;;;12.02;3.70;;;20.20;59.50;;;;;;7837713;28;20229;-48
2022/03/05 16:15:45;;;;;;;28.63;4.90;;;20.20;59.50;;;;;;7837992;28;20329;-53
2022/03/05 16:19:30;;;;;;;14.40;3.78;;;20.20;59.80;;;;;;7837030;28;20226;-51
2022/03/05 16:23:16;;;;;;;23.00;4.38;;;20.30;59.90;;;;;;7867441;28;20241;-51
2022/03/05 16:27:02;;;;;;;17.60;4.30;;;20.30;60.20;;;;;;7868617;28;20729;-55
2022/03/05 16:30:47;;;;;;;14.35;4.43;;;20.30;59.90;;;;;;7868207;28;20248;-52
2022/03/05 16:34:33;;;;;;;15.45;3.90;;;20.30;59.80;;;;;;7868329;28;20165;-51
2022/03/05 16:38:19;;;;;;;14.52;3.83;;;20.30;59.70;;;;;;7836120;28;20178;-51
2022/03/05 16:42:05;;;;;;;14.60;3.80;;;20.30;60.50;;;;;;7836461;28;20231;-52
2022/03/05 16:45:50;;;;;;;20.95;4.28;;;20.30;59.80;;;;;;7837399;28;20185;-54
2022/03/05 16:49:40;;;;;;;23.52;4.95;;;20.30;60.00;;;;;;7837501;28;20252;-51
2022/03/05 16:53:26;;;;;;;12.68;4.20;;;20.40;60.10;;;;;;7837331;28;20663;-50
2022/03/05 16:57:11;;;;;;;11.00;4.43;;;20.40;59.80;;;;;;7836654;28;20774;-52
2022/03/05 17:00:57;;;;;;;27.73;5.45;;;20.50;59.60;;;;;;7835479;28;20552;-51
2022/03/05 17:04:42;;;;;;;20.58;4.45;;;20.40;59.70;;;;;;7839002;28;20182;-54
2022/03/05 17:08:28;;;;;;;23.55;5.28;;;20.50;60.20;;;;;;7867864;28;20205;-51
2022/03/05 17:12:14;;;;;;;23.17;4.68;;;20.50;59.60;;;;;;7867144;28;20197;-51
2022/03/05 17:16:00;;;;;;;21.52;5.22;;;20.50;59.30;;;;;;7867277;28;20185;-51
2022/03/05 17:19:45;;;;;;;22.17;4.97;;;20.50;59.20;;;;;;7863782;28;20632;-51
2022/03/05 17:23:31;;;;;;;14.75;5.35;;;20.50;59.20;;;;;;7836013;28;20194;-51
2022/03/05 17:27:16;;;;;;;17.75;5.38;;;20.50;59.30;;;;;;7836606;28;20228;-50
2022/03/05 17:31:02;;;;;;;15.52;5.72;;;20.60;59.30;;;;;;7835546;28;20277;-53
2022/03/05 17:34:48;;;;;;;16.08;5.38;;;20.60;59.30;;;;;;7838741;28;20213;-50
2022/03/05 17:38:33;;;;;;;20.92;5.43;;;20.60;59.20;;;;;;7836026;28;20174;-51
2022/03/05 17:42:19;;;;;;;19.33;5.50;;;20.70;59.30;;;;;;7835205;28;20289;-53
2022/03/05 17:46:08;;;;;;;19.10;5.45;;;20.80;59.40;;;;;;7836221;28;20670;-51
2022/03/05 17:49:54;;;;;;;28.27;4.78;;;20.90;59.80;;;;;;7854931;28;20184;-52
2022/03/05 17:53:40;;;;;;;20.85;5.43;;;21.00;60.80;;;;;;7872277;28;20201;-51
2022/03/05 17:57:25;;;;;;;14.10;5.18;;;21.10;59.90;;;;;;7872304;28;20186;-50
2022/03/05 18:01:11;;;;;;;21.13;5.45;;;21.20;60.00;;;;;;7871351;28;21024;-52
2022/03/05 18:04:56;;;;;;;16.10;4.72;;;21.30;60.50;;;;;;7866973;28;20265;-52
2022/03/05 18:08:42;;;;;;;12.38;5.15;;;21.40;62.10;;;;;;7841491;28;20210;-52
2022/03/05 18:12:27;;;;;;;23.50;5.40;;;21.40;61.30;;;;;;7840695;28;20193;-51
2022/03/05 18:16:13;;;;;;;20.17;5.68;;;21.50;62.80;;;;;;7840577;28;20662;-51
2022/03/05 18:19:59;;;;;;;25.30;5.57;;;21.60;62.10;;;;;;7840249;28;20193;-52
2022/03/05 18:23:44;;;;;;;16.92;4.90;;;21.60;61.90;;;;;;7840678;28;20225;-51
2022/03/05 18:27:30;;;;;;;22.20;5.45;;;21.70;62.50;;;;;;7840644;28;20209;-51
2022/03/05 18:31:15;;;;;;;24.25;5.80;;;21.70;63.10;;;;;;7840115;28;20193;-52
2022/03/05 18:35:01;;;;;;;13.45;5.13;;;21.70;63.00;;;;;;7853435;28;20208;-53
2022/03/05 18:38:47;;;;;;;21.55;6.20;;;21.80;61.70;;;;;;7873001;28;20208;-50
2022/03/05 18:42:32;;;;;;;19.95;5.28;;;21.70;60.00;;;;;;7871929;28;20752;-51
2022/03/05 18:46:18;;;;;;;11.48;4.25;;;21.80;60.80;;;;;;7871818;28;20514;-50
2022/03/05 18:50:08;;;;;;;8.13;4.40;;;21.80;62.00;;;;;;7871645;28;20273;-51
2022/03/05 18:53:53;;;;;;;11.38;4.40;;;21.90;61.90;;;;;;7871760;28;20205;-51
2022/03/05 18:57:39;;;;;;;12.82;4.63;;;21.90;62.50;;;;;;7871607;28;20256;-51
2022/03/05 19:01:25;;;;;;;17.00;4.20;;;22.00;62.70;;;;;;7870131;28;20697;-52
2022/03/05 19:05:11;;;;;;;10.43;3.85;;;22.20;62.80;;;;;;7871587;28;20174;-52
2022/03/05 19:08:57;;;;;;;20.60;4.65;;;22.30;62.70;;;;;;7871132;28;20208;-52
2022/03/05 19:12:46;;;;;;;15.35;4.68;;;22.40;62.70;;;;;;7870726;28;20197;-51
2022/03/05 19:16:32;;;;;;;8.50;4.40;;;22.50;62.60;;;;;;7871130;28;20311;-51
2022/03/05 19:20:17;;;;;;;12.90;4.47;;;22.60;62.40;;;;;;7870831;28;20248;-53
2022/03/05 19:24:04;;;;;;;9.77;3.88;;;22.80;62.40;;;;;;7870755;28;20204;-51
2022/03/05 19:27:50;;;;;;;14.60;4.18;;;22.90;62.20;;;;;;7870529;28;20208;-51
2022/03/05 19:31:35;;;;;;;10.63;3.80;;;23.00;62.00;;;;;;7870153;28;20731;-52